Airfield :
LOGIN :

Register | Disclaimer

   EN    FR    IT 

 










Legend :    VFR   Marginal VFR   IFR   Intensive IFR   Very Intensive IFR
Visi :
Ceiling :
>= 8 km
>= 3000ft
5 to 8 km
1000 to 3000 ft
1500m to 5 km
500 to 1000 ft
800 to 1500m
200 to 500 ft
< 800m
< 200 ft
Symbols :   Thunderstorms  Fog  Heavy snow  Heavy precipitations  Wind > 20 kt
SIGMETs :     Misc.  Thunderstorms  Icing  Turbulence  Mountain Waves  Volcanic Ashes







- Airport Elevation : 885 ft
- IATA code : BAS
- Download approach charts


LFSB - Bale-Mulhouse

CURRENT METAR :
  • 200130Z AUTO 23014KT 4100 TSRA BR FEW021/// BKN042/// BKN056/// ///CB 18/16 Q1015 NOSIG

EXPIRED METARs :
  • 200100Z AUTO 23009KT 210V270 9999 TS FEW047/// OVC074/// ///CB 21/14 Q1014 TEMPO 4000 TSRA
  • 200030Z AUTO 25008KT 220V280 9999 ///TCU 21/14 Q1013 TEMPO 4000 TSRA FEW040CB BKN060
  • 200000Z AUTO 27003KT 210V340 9999 NCD 21/14 Q1013 TEMPO 4000 TSRA FEW040CB BKN060
  • 192330Z AUTO 21004KT 140V260 9999 ///CB 21/14 Q1013 TEMPO 4000 TSRA
  • 192300Z AUTO VRB03KT 9999 NCD 21/14 Q1013 TEMPO 4000 TSRA FEW050CB BKN060

TAF AMD TAF LFSB
Valid from the 20 at 00:00 until the 21 at 00:00 UTC


192350Z 2000/2024 25005KT CAVOK
PROB40
TEMPO 2000/2010 SHRA FEW040CB BKN060
PROB40
TEMPO 2001/2003 4000 TSRA
PROB30
TEMPO 2003/2010 4000 TSRA
TEMPO 2010/2015 3000 SHRA FEW030CB BKN050
PROB40
TEMPO 2010/2015 TSRA
BECMG 2012/2015 FEW030CB
PROB30
TEMPO 2015/2021 TSRA
PROB40
TEMPO 2018/2024 -SHRA
BECMG 2020/2022 SCT050 BKN100
Met : +33 3 89 90 31 11
No reported NOTAMs for that airfield.



MET'MAP, your aeronautical weather chart ! - Copyright ORBIFLY December 2007 - Disclaimer

ORBIFLY MET'MAP TEAM :

Programming & Development : Alexandra Zaïnal
Concept & Development : Baudouin d'Aumeries
Co-Development & Prog : Marc-Olivier Méhu
Technical & hardware support : Manuel Goepfert

Contact : metmap@orbifly.com




SOURCES & CREDITS :

   NOAA